Time;durP1;ratioP1;P1;durP2;ratioP2;P2;SDS_P1;SDS_P2;PMS_P1;PMS_P2;Temp;Humidity;BMP_temperature;BMP_pressure;BME280_temperature;BME280_humidity;BME280_pressure;Samples;Min_cycle;Max_cycle;Signal;HPM_P1;HPM_P2
2023/11/01 00:00:47;;;;;;;16.58;9.80;;;;;;;;;;5126709;27;20498;-70
2023/11/01 00:03:33;;;;;;;16.52;9.73;;;;;;;;;;5126892;27;20057;-70
2023/11/01 00:06:18;;;;;;;15.45;9.00;;;;;;;;;;5129217;27;20045;-72
2023/11/01 00:09:04;;;;;;;16.25;9.25;;;;;;;;;;5125354;27;20026;-72
2023/11/01 00:11:49;;;;;;;13.32;8.73;;;;;;;;;;5120263;27;20418;-73
2023/11/01 00:14:35;;;;;;;15.82;9.30;;;;;;;;;;5136461;27;20037;-72
2023/11/01 00:17:21;;;;;;;18.70;8.48;;;;;;;;;;5120878;27;20439;-71
2023/11/01 00:20:06;;;;;;;17.92;9.63;;;;;;;;;;5135230;27;20023;-70
2023/11/01 00:22:52;;;;;;;15.38;8.98;;;;;;;;;;5135261;27;20091;-71
2023/11/01 00:25:38;;;;;;;17.88;9.32;;;;;;;;;;5134511;27;20019;-70
2023/11/01 00:28:24;;;;;;;14.93;8.45;;;;;;;;;;5121326;28;20011;-71
2023/11/01 00:31:09;;;;;;;16.52;9.15;;;;;;;;;;5135135;28;20038;-70
2023/11/01 00:33:55;;;;;;;17.10;8.70;;;;;;;;;;5135479;28;20428;-71
2023/11/01 00:36:41;;;;;;;18.63;8.48;;;;;;;;;;5135308;28;20031;-72
2023/11/01 00:39:26;;;;;;;13.32;9.02;;;;;;;;;;5135793;28;20031;-70
2023/11/01 00:42:12;;;;;;;18.10;9.18;;;;;;;;;;5136172;28;20458;-70
2023/11/01 00:44:57;;;;;;;16.20;8.73;;;;;;;;;;5135059;28;20027;-71
2023/11/01 00:47:43;;;;;;;13.10;8.27;;;;;;;;;;5135422;28;20038;-70
2023/11/01 00:50:30;;;;;;;14.15;8.40;;;;;;;;;;5134863;28;20023;-70
2023/11/01 00:53:15;;;;;;;15.35;8.07;;;;;;;;;;5134294;28;20030;-71
2023/11/01 00:56:01;;;;;;;19.05;8.65;;;;;;;;;;5136393;28;20134;-70
2023/11/01 00:58:47;;;;;;;16.85;8.63;;;;;;;;;;5119088;28;20106;-70
2023/11/01 01:01:32;;;;;;;15.77;8.93;;;;;;;;;;5135421;28;20019;-71
2023/11/01 01:04:18;;;;;;;17.10;9.30;;;;;;;;;;5135337;28;20189;-71
2023/11/01 01:07:03;;;;;;;22.10;9.75;;;;;;;;;;5134176;28;20102;-71
2023/11/01 01:09:49;;;;;;;18.33;9.60;;;;;;;;;;5134052;28;20103;-70
2023/11/01 01:12:35;;;;;;;17.75;8.93;;;;;;;;;;5135375;28;20016;-71
2023/11/01 01:15:20;;;;;;;16.85;9.07;;;;;;;;;;5135630;28;20157;-71
2023/11/01 01:18:06;;;;;;;15.25;8.75;;;;;;;;;;5135963;28;20114;-70
2023/11/01 01:20:52;;;;;;;19.75;9.10;;;;;;;;;;5120728;28;20015;-71
2023/11/01 01:23:37;;;;;;;15.90;8.02;;;;;;;;;;5138540;27;20037;-70
2023/11/01 01:26:23;;;;;;;21.35;8.52;;;;;;;;;;5139409;27;20046;-71
2023/11/01 01:29:09;;;;;;;18.63;8.65;;;;;;;;;;5138234;27;20046;-71
2023/11/01 01:31:54;;;;;;;19.50;8.63;;;;;;;;;;5137967;27;20351;-71
2023/11/01 01:34:40;;;;;;;18.92;9.20;;;;;;;;;;5137906;27;20075;-72
2023/11/01 01:37:26;;;;;;;20.92;8.30;;;;;;;;;;5137807;27;20019;-71
2023/11/01 01:40:11;;;;;;;21.88;8.52;;;;;;;;;;5123075;27;20023;-71
2023/11/01 01:43:08;;;;;;;19.75;9.35;;;;;;;;;;5138488;27;20027;-71
2023/11/01 01:46:10;;;;;;;19.02;9.07;;;;;;;;;;5138039;27;20160;-70
2023/11/01 01:48:57;;;;;;;15.30;7.97;;;;;;;;;;5138332;27;20066;-71
2023/11/01 01:51:43;;;;;;;18.08;8.25;;;;;;;;;;5137901;27;20384;-71
2023/11/01 01:54:28;;;;;;;15.07;7.53;;;;;;;;;;5139045;27;20048;-69
2023/11/01 01:57:17;;;;;;;17.55;7.43;;;;;;;;;;5123889;27;20023;-70
2023/11/01 02:00:07;;;;;;;16.42;7.78;;;;;;;;;;5137303;27;20406;-71
2023/11/01 02:02:53;;;;;;;16.73;7.47;;;;;;;;;;5138104;27;20050;-71
2023/11/01 02:05:38;;;;;;;21.05;8.57;;;;;;;;;;5137159;27;20058;-71
2023/11/01 02:08:25;;;;;;;15.40;7.93;;;;;;;;;;5138498;27;20024;-69
2023/11/01 02:11:10;;;;;;;21.23;8.55;;;;;;;;;;5136957;27;20035;-71
2023/11/01 02:13:56;;;;;;;17.08;8.82;;;;;;;;;;5137871;27;20079;-71
2023/11/01 02:16:41;;;;;;;20.48;9.02;;;;;;;;;;5138362;27;20030;-71
2023/11/01 02:19:29;;;;;;;18.52;9.60;;;;;;;;;;5137821;27;20031;-71
2023/11/01 02:22:14;;;;;;;22.25;10.55;;;;;;;;;;5137636;27;20343;-72
2023/11/01 02:25:00;;;;;;;25.83;10.88;;;;;;;;;;5137673;27;20443;-70
2023/11/01 02:27:46;;;;;;;21.30;10.52;;;;;;;;;;5137548;27;20043;-71
2023/11/01 02:30:31;;;;;;;22.70;11.38;;;;;;;;;;5137053;27;20030;-70
2023/11/01 02:33:17;;;;;;;21.92;11.27;;;;;;;;;;5120517;27;20046;-71
2023/11/01 02:36:03;;;;;;;23.15;11.70;;;;;;;;;;5123157;27;20211;-70
2023/11/01 02:38:48;;;;;;;22.58;11.65;;;;;;;;;;5137259;27;20110;-72
2023/11/01 02:41:34;;;;;;;21.38;12.00;;;;;;;;;;5137229;27;20023;-71
2023/11/01 02:44:20;;;;;;;24.25;11.85;;;;;;;;;;5137449;27;20023;-71
2023/11/01 02:47:05;;;;;;;26.38;11.95;;;;;;;;;;5121797;27;20023;-71
2023/11/01 02:49:51;;;;;;;18.05;10.75;;;;;;;;;;5137169;27;20071;-69
2023/11/01 02:52:38;;;;;;;24.42;12.48;;;;;;;;;;5136706;27;20458;-71
2023/11/01 02:55:23;;;;;;;22.98;12.52;;;;;;;;;;5135647;27;20051;-71
2023/11/01 02:58:09;;;;;;;25.85;13.48;;;;;;;;;;5136986;27;20102;-71
2023/11/01 03:00:54;;;;;;;21.02;13.10;;;;;;;;;;5136464;27;20026;-71
2023/11/01 03:03:40;;;;;;;23.63;13.45;;;;;;;;;;5136380;27;20051;-70
2023/11/01 03:06:25;;;;;;;25.70;14.10;;;;;;;;;;5136538;27;20019;-71
2023/11/01 03:09:11;;;;;;;25.45;14.32;;;;;;;;;;5115026;27;20012;-71
2023/11/01 03:11:57;;;;;;;23.50;14.32;;;;;;;;;;5136497;27;20423;-71
2023/11/01 03:14:42;;;;;;;22.23;14.65;;;;;;;;;;5136121;27;20447;-71
2023/11/01 03:17:28;;;;;;;26.83;15.27;;;;;;;;;;5121586;27;20027;-71
2023/11/01 03:20:13;;;;;;;28.13;13.80;;;;;;;;;;5136315;27;20392;-71
2023/11/01 03:23:00;;;;;;;23.90;13.63;;;;;;;;;;5136436;27;20023;-71
2023/11/01 03:25:46;;;;;;;26.23;13.55;;;;;;;;;;5136397;27;20027;-71
2023/11/01 03:28:32;;;;;;;24.92;13.10;;;;;;;;;;5121813;27;20090;-72
2023/11/01 03:31:18;;;;;;;18.08;12.38;;;;;;;;;;5120944;27;20464;-70
2023/11/01 03:34:04;;;;;;;22.10;12.32;;;;;;;;;;5121574;27;20031;-71
2023/11/01 03:36:50;;;;;;;20.13;11.48;;;;;;;;;;5136328;27;20034;-71
2023/11/01 03:39:35;;;;;;;19.58;11.30;;;;;;;;;;5135276;27;20023;-72
2023/11/01 03:42:21;;;;;;;21.20;11.27;;;;;;;;;;5121343;27;20019;-72
2023/11/01 03:45:07;;;;;;;22.75;12.15;;;;;;;;;;5136168;27;20427;-72
2023/11/01 03:47:53;;;;;;;17.42;11.18;;;;;;;;;;5120305;27;20023;-71
2023/11/01 03:50:39;;;;;;;18.40;11.32;;;;;;;;;;5120406;27;20495;-71
2023/11/01 03:53:24;;;;;;;17.70;10.70;;;;;;;;;;5120184;27;20026;-71
2023/11/01 03:56:11;;;;;;;15.63;10.40;;;;;;;;;;5135867;27;20027;-71
2023/11/01 03:58:56;;;;;;;16.92;9.70;;;;;;;;;;5135428;27;20062;-71
2023/11/01 04:01:42;;;;;;;17.23;10.35;;;;;;;;;;5135948;27;20023;-71
2023/11/01 04:04:28;;;;;;;18.95;9.88;;;;;;;;;;5135147;27;20089;-71
2023/11/01 04:07:13;;;;;;;18.55;9.95;;;;;;;;;;5135379;27;20015;-71
2023/11/01 04:09:59;;;;;;;16.20;9.32;;;;;;;;;;5135038;27;20034;-71
2023/11/01 04:12:44;;;;;;;17.27;9.52;;;;;;;;;;5136412;27;20110;-71
2023/11/01 04:15:31;;;;;;;15.50;9.65;;;;;;;;;;5135464;27;20015;-72
2023/11/01 04:18:17;;;;;;;17.58;9.55;;;;;;;;;;5135611;27;20106;-71
2023/11/01 04:21:03;;;;;;;15.60;10.00;;;;;;;;;;5135580;27;20080;-71
2023/11/01 04:23:49;;;;;;;18.58;10.38;;;;;;;;;;5135409;27;20019;-71
2023/11/01 04:26:35;;;;;;;17.73;10.07;;;;;;;;;;5134624;27;20088;-71
2023/11/01 04:29:20;;;;;;;17.88;10.57;;;;;;;;;;5136025;28;20023;-70
2023/11/01 04:32:06;;;;;;;17.35;10.85;;;;;;;;;;5135481;28;20090;-71
2023/11/01 04:34:52;;;;;;;17.73;10.18;;;;;;;;;;5135944;28;20392;-71
2023/11/01 04:37:41;;;;;;;16.02;9.68;;;;;;;;;;5135566;28;20027;-71
2023/11/01 04:40:26;;;;;;;13.02;9.20;;;;;;;;;;5134387;28;20039;-71
2023/11/01 04:43:12;;;;;;;11.90;8.05;;;;;;;;;;5134921;28;20027;-72
2023/11/01 04:45:57;;;;;;;14.68;8.70;;;;;;;;;;5135019;28;20063;-71
2023/11/01 04:48:43;;;;;;;14.55;8.73;;;;;;;;;;5134633;28;20016;-71
2023/11/01 04:51:29;;;;;;;12.70;8.30;;;;;;;;;;5135696;28;20336;-71
2023/11/01 04:54:15;;;;;;;17.67;8.48;;;;;;;;;;5114773;28;20099;-71
2023/11/01 04:57:01;;;;;;;12.65;8.43;;;;;;;;;;5134992;27;20034;-71
2023/11/01 04:59:46;;;;;;;13.57;8.82;;;;;;;;;;5137879;27;20019;-71
2023/11/01 05:02:32;;;;;;;12.48;8.00;;;;;;;;;;5139698;27;20061;-71
2023/11/01 05:05:17;;;;;;;11.60;7.30;;;;;;;;;;5123298;27;20112;-71
2023/11/01 05:08:03;;;;;;;12.45;7.35;;;;;;;;;;5139516;27;20039;-72
2023/11/01 05:10:49;;;;;;;14.35;7.95;;;;;;;;;;5138360;27;20011;-72
2023/11/01 05:13:34;;;;;;;9.98;7.05;;;;;;;;;;5124564;27;20025;-72
2023/11/01 05:16:20;;;;;;;13.65;7.47;;;;;;;;;;5140010;27;20355;-71
2023/11/01 05:19:08;;;;;;;10.70;7.40;;;;;;;;;;5139678;27;20035;-71
2023/11/01 05:21:54;;;;;;;12.55;7.68;;;;;;;;;;5139202;27;20033;-72
2023/11/01 05:24:39;;;;;;;12.38;7.15;;;;;;;;;;5137816;27;20019;-72
2023/11/01 05:27:25;;;;;;;11.68;7.10;;;;;;;;;;5139065;27;20462;-71
2023/11/01 05:30:14;;;;;;;9.60;6.20;;;;;;;;;;5138652;27;20026;-72
2023/11/01 05:32:59;;;;;;;10.57;6.32;;;;;;;;;;5138378;27;20463;-72
2023/11/01 05:35:45;;;;;;;10.52;6.55;;;;;;;;;;5138555;27;20106;-71
2023/11/01 05:38:31;;;;;;;10.32;6.15;;;;;;;;;;5138187;27;20015;-71
2023/11/01 05:41:16;;;;;;;10.35;6.38;;;;;;;;;;5138494;27;20042;-71
2023/11/01 05:44:02;;;;;;;11.02;6.00;;;;;;;;;;5138819;27;20019;-71
2023/11/01 05:46:51;;;;;;;11.02;6.45;;;;;;;;;;5138537;27;20019;-71
2023/11/01 05:49:37;;;;;;;10.75;5.43;;;;;;;;;;5138361;27;20026;-72
2023/11/01 05:52:22;;;;;;;10.05;5.65;;;;;;;;;;5138102;27;20099;-72
2023/11/01 05:55:08;;;;;;;8.82;5.55;;;;;;;;;;5123309;27;20486;-72
2023/11/01 05:57:54;;;;;;;8.18;5.15;;;;;;;;;;5137978;27;20027;-72
2023/11/01 06:00:39;;;;;;;11.55;5.38;;;;;;;;;;5137795;27;20067;-71
2023/11/01 06:03:25;;;;;;;9.00;5.45;;;;;;;;;;5136975;27;20023;-71
2023/11/01 06:06:11;;;;;;;10.73;5.90;;;;;;;;;;5123742;27;20102;-69
2023/11/01 06:08:57;;;;;;;8.15;5.63;;;;;;;;;;5136786;27;20011;-71
2023/11/01 06:11:43;;;;;;;9.45;5.57;;;;;;;;;;5138795;27;20065;-71
2023/11/01 06:14:29;;;;;;;10.68;6.25;;;;;;;;;;5122482;27;20019;-71
2023/11/01 06:17:15;;;;;;;10.90;5.88;;;;;;;;;;5123560;27;20455;-71
2023/11/01 06:20:00;;;;;;;12.32;8.35;;;;;;;;;;5137916;27;20401;-70
2023/11/01 06:22:46;;;;;;;10.15;5.82;;;;;;;;;;5137824;27;20030;-72
2023/11/01 06:25:32;;;;;;;8.35;6.05;;;;;;;;;;5138183;27;20027;-71
2023/11/01 06:28:17;;;;;;;9.15;5.35;;;;;;;;;;5136777;27;20036;-71
2023/11/01 06:31:03;;;;;;;8.13;5.25;;;;;;;;;;5122317;27;20015;-72
2023/11/01 06:33:49;;;;;;;8.98;5.68;;;;;;;;;;5121795;27;20027;-70
2023/11/01 06:36:34;;;;;;;8.85;5.60;;;;;;;;;;5137109;27;20019;-71
2023/11/01 06:39:20;;;;;;;8.05;5.50;;;;;;;;;;5122884;27;20016;-72
2023/11/01 06:42:05;;;;;;;9.75;5.82;;;;;;;;;;5137758;27;20038;-72
2023/11/01 06:44:51;;;;;;;8.50;5.68;;;;;;;;;;5136549;27;20052;-71
2023/11/01 06:47:37;;;;;;;8.45;5.30;;;;;;;;;;5136432;27;20027;-71
2023/11/01 06:50:22;;;;;;;9.73;5.32;;;;;;;;;;5136429;27;20025;-71
2023/11/01 06:53:08;;;;;;;8.43;5.28;;;;;;;;;;5137671;27;20077;-70
2023/11/01 06:55:54;;;;;;;8.65;4.97;;;;;;;;;;5121448;27;20046;-71
2023/11/01 06:58:39;;;;;;;8.70;5.57;;;;;;;;;;5137568;27;20332;-70
2023/11/01 07:01:25;;;;;;;11.98;5.47;;;;;;;;;;5136756;27;20308;-71
2023/11/01 07:04:11;;;;;;;7.97;5.53;;;;;;;;;;5136713;27;20046;-71
2023/11/01 07:06:56;;;;;;;9.88;5.20;;;;;;;;;;5122545;27;20023;-71
2023/11/01 07:09:42;;;;;;;10.13;5.35;;;;;;;;;;5136340;27;20011;-71
2023/11/01 07:12:27;;;;;;;8.35;4.90;;;;;;;;;;5136924;27;20047;-71
2023/11/01 07:15:13;;;;;;;8.43;5.57;;;;;;;;;;5136222;27;20019;-71
2023/11/01 07:17:59;;;;;;;8.13;4.90;;;;;;;;;;5122463;27;20035;-71
2023/11/01 07:20:44;;;;;;;8.00;4.93;;;;;;;;;;5136677;27;20106;-73
2023/11/01 07:23:30;;;;;;;9.80;4.88;;;;;;;;;;5121388;27;20158;-72
2023/11/01 07:26:16;;;;;;;5.80;4.00;;;;;;;;;;5121842;27;20020;-71
2023/11/01 07:29:02;;;;;;;5.75;3.67;;;;;;;;;;5135750;27;20023;-71
2023/11/01 07:31:48;;;;;;;7.90;4.28;;;;;;;;;;5136155;27;20034;-71
2023/11/01 07:34:33;;;;;;;10.38;4.45;;;;;;;;;;5121761;27;20399;-70
2023/11/01 07:37:19;;;;;;;9.00;4.95;;;;;;;;;;5120848;27;20031;-71
2023/11/01 07:40:05;;;;;;;8.60;4.28;;;;;;;;;;5120848;27;20076;-71
2023/11/01 07:42:50;;;;;;;8.82;4.75;;;;;;;;;;5122115;27;20022;-72
2023/11/01 07:45:36;;;;;;;6.45;3.90;;;;;;;;;;5120700;27;20478;-71
2023/11/01 07:48:22;;;;;;;5.00;3.45;;;;;;;;;;5135126;27;20019;-71
2023/11/01 07:51:07;;;;;;;9.80;4.00;;;;;;;;;;5135661;27;20021;-72
2023/11/01 07:53:53;;;;;;;5.88;3.70;;;;;;;;;;5135498;27;20420;-71
2023/11/01 07:56:38;;;;;;;6.60;4.00;;;;;;;;;;5135407;27;20102;-71
2023/11/01 07:59:24;;;;;;;11.32;3.63;;;;;;;;;;5135874;27;20083;-71
2023/11/01 08:02:09;;;;;;;6.57;3.67;;;;;;;;;;5135126;27;20026;-71
2023/11/01 08:04:55;;;;;;;8.90;3.58;;;;;;;;;;5135555;27;20015;-72
2023/11/01 08:07:41;;;;;;;4.68;3.00;;;;;;;;;;5135402;27;20015;-71
2023/11/01 08:10:26;;;;;;;8.68;2.78;;;;;;;;;;5135292;27;20020;-71
2023/11/01 08:13:12;;;;;;;7.40;2.50;;;;;;;;;;5135930;27;20015;-71
2023/11/01 08:15:57;;;;;;;5.22;2.30;;;;;;;;;;5135965;27;20031;-72
2023/11/01 08:18:43;;;;;;;6.30;2.53;;;;;;;;;;5135338;27;20011;-71
2023/11/01 08:21:28;;;;;;;3.63;2.00;;;;;;;;;;5135444;27;20196;-72
2023/11/01 08:24:14;;;;;;;4.60;2.22;;;;;;;;;;5135022;27;20037;-72
2023/11/01 08:27:00;;;;;;;4.47;2.17;;;;;;;;;;5121228;28;20130;-72
2023/11/01 08:29:45;;;;;;;4.22;2.30;;;;;;;;;;5135281;28;20047;-71
2023/11/01 08:32:31;;;;;;;7.18;2.63;;;;;;;;;;5135040;27;20072;-71
2023/11/01 08:35:16;;;;;;;8.07;2.35;;;;;;;;;;5135557;28;20486;-71
2023/11/01 08:38:03;;;;;;;8.73;2.13;;;;;;;;;;5135429;28;20031;-71
2023/11/01 08:40:48;;;;;;;12.38;2.47;;;;;;;;;;5134854;28;20465;-71
2023/11/01 08:43:34;;;;;;;2.65;1.70;;;;;;;;;;5135200;28;20508;-71
2023/11/01 08:46:19;;;;;;;5.68;1.80;;;;;;;;;;5135467;28;20528;-71
2023/11/01 08:49:05;;;;;;;3.65;2.20;;;;;;;;;;5136630;28;20034;-70
2023/11/01 08:51:51;;;;;;;11.02;2.58;;;;;;;;;;5135205;28;20098;-70
2023/11/01 08:54:36;;;;;;;3.05;1.88;;;;;;;;;;5140146;28;20039;-71
2023/11/01 08:57:22;;;;;;;6.55;1.90;;;;;;;;;;5134912;28;20019;-71
2023/11/01 09:00:08;;;;;;;10.35;2.03;;;;;;;;;;5135760;28;20091;-71
2023/11/01 09:02:54;;;;;;;4.45;1.55;;;;;;;;;;5136052;28;20051;-72
2023/11/01 09:05:39;;;;;;;5.13;2.08;;;;;;;;;;5135837;28;20038;-70
2023/11/01 09:08:25;;;;;;;6.15;2.17;;;;;;;;;;5136614;28;20435;-70
2023/11/01 09:11:10;;;;;;;7.38;2.08;;;;;;;;;;5119512;28;20335;-72
2023/11/01 09:13:56;;;;;;;4.38;1.98;;;;;;;;;;5135532;28;20015;-71
2023/11/01 09:16:42;;;;;;;4.10;2.30;;;;;;;;;;5120612;28;20011;-71
2023/11/01 09:19:28;;;;;;;5.63;2.20;;;;;;;;;;5134519;28;20126;-71
2023/11/01 09:22:15;;;;;;;10.70;2.33;;;;;;;;;;5134924;28;20023;-71
2023/11/01 09:25:01;;;;;;;4.72;1.80;;;;;;;;;;5134719;28;20023;-71
2023/11/01 09:27:46;;;;;;;6.82;1.77;;;;;;;;;;5133845;28;20336;-71
2023/11/01 09:30:32;;;;;;;7.15;2.80;;;;;;;;;;5135106;28;20023;-71
2023/11/01 09:33:17;;;;;;;6.30;2.10;;;;;;;;;;5134724;28;20030;-71
2023/11/01 09:36:03;;;;;;;10.25;1.63;;;;;;;;;;5110980;28;20045;-71
2023/11/01 09:38:49;;;;;;;2.95;1.42;;;;;;;;;;5134747;28;20015;-71
2023/11/01 09:41:41;;;;;;;7.97;1.98;;;;;;;;;;5134834;28;20020;-72
2023/11/01 09:44:28;;;;;;;17.10;2.10;;;;;;;;;;5137023;27;20027;-72
2023/11/01 09:47:14;;;;;;;7.07;1.73;;;;;;;;;;5137774;27;20039;-72
2023/11/01 09:50:00;;;;;;;5.80;2.05;;;;;;;;;;5137691;27;20094;-73
2023/11/01 09:52:46;;;;;;;8.85;1.88;;;;;;;;;;5137174;27;20359;-72
2023/11/01 09:55:31;;;;;;;15.20;2.15;;;;;;;;;;5136917;27;20051;-73
2023/11/01 09:58:18;;;;;;;4.30;1.92;;;;;;;;;;5122903;27;20023;-72
2023/11/01 10:01:04;;;;;;;7.90;1.88;;;;;;;;;;5123134;27;20031;-72
2023/11/01 10:03:49;;;;;;;5.90;2.60;;;;;;;;;;5138863;27;20065;-73
2023/11/01 10:06:38;;;;;;;4.47;1.80;;;;;;;;;;5137194;27;20065;-73
2023/11/01 10:09:26;;;;;;;7.40;2.00;;;;;;;;;;5137539;27;20023;-73
2023/11/01 10:12:12;;;;;;;5.03;1.80;;;;;;;;;;5122602;27;20022;-75
2023/11/01 10:14:58;;;;;;;5.57;2.00;;;;;;;;;;5138342;27;20055;-71
2023/11/01 10:17:44;;;;;;;19.00;3.00;;;;;;;;;;5137819;27;20034;-73
2023/11/01 10:20:31;;;;;;;6.90;2.03;;;;;;;;;;5123170;27;20023;-72
2023/11/01 10:23:20;;;;;;;9.88;2.00;;;;;;;;;;5137635;27;20030;-73
2023/11/01 10:26:06;;;;;;;9.05;2.10;;;;;;;;;;5137231;27;20400;-72
2023/11/01 10:28:51;;;;;;;8.80;2.72;;;;;;;;;;5136602;27;20027;-72
2023/11/01 10:31:37;;;;;;;28.27;3.40;;;;;;;;;;5137325;27;20061;-72
2023/11/01 10:34:27;;;;;;;9.35;3.05;;;;;;;;;;5136968;27;20023;-71
2023/11/01 10:37:17;;;;;;;5.80;2.40;;;;;;;;;;5136979;27;20023;-73
2023/11/01 10:40:10;;;;;;;7.78;2.63;;;;;;;;;;5136241;27;20038;-72
2023/11/01 10:42:59;;;;;;;6.60;2.38;;;;;;;;;;5136749;27;20023;-72
2023/11/01 10:45:49;;;;;;;13.13;2.50;;;;;;;;;;5137125;27;20019;-72
2023/11/01 10:48:35;;;;;;;8.85;2.20;;;;;;;;;;5136627;27;20344;-72
2023/11/01 10:51:20;;;;;;;11.75;2.95;;;;;;;;;;5136966;27;20076;-72
2023/11/01 10:54:09;;;;;;;4.47;2.30;;;;;;;;;;5136375;27;20103;-71
2023/11/01 10:56:55;;;;;;;10.23;2.90;;;;;;;;;;5137704;27;20023;-73
2023/11/01 10:59:44;;;;;;;7.80;2.03;;;;;;;;;;5137121;27;20511;-72
2023/11/01 11:02:37;;;;;;;9.93;2.50;;;;;;;;;;5136007;27;20042;-73
2023/11/01 11:05:25;;;;;;;6.53;2.22;;;;;;;;;;5136763;27;20015;-72
2023/11/01 11:08:11;;;;;;;9.18;2.88;;;;;;;;;;5136800;27;20026;-72
2023/11/01 11:11:13;;;;;;;13.75;2.63;;;;;;;;;;5126694;27;20360;-73
2023/11/01 11:14:19;;;;;;;7.40;2.75;;;;;;;;;;5135394;27;20011;-72
2023/11/01 11:17:08;;;;;;;5.55;2.63;;;;;;;;;;5135117;27;20030;-72
2023/11/01 11:20:09;;;;;;;42.03;3.88;;;;;;;;;;5135359;27;20030;-72
2023/11/01 11:22:57;;;;;;;9.05;2.15;;;;;;;;;;5136007;27;20101;-72
2023/11/01 11:25:49;;;;;;;9.60;2.83;;;;;;;;;;5136105;27;20023;-72
2023/11/01 11:28:35;;;;;;;7.78;2.42;;;;;;;;;;5135805;27;20030;-72
2023/11/01 11:31:20;;;;;;;13.77;2.78;;;;;;;;;;5136047;27;20015;-73
2023/11/01 11:34:06;;;;;;;5.25;1.50;;;;;;;;;;5135643;27;20015;-72
2023/11/01 11:37:11;;;;;;;9.52;1.90;;;;;;;;;;5136125;27;20164;-72
2023/11/01 11:40:00;;;;;;;3.28;1.40;;;;;;;;;;5134976;27;20023;-71
2023/11/01 11:42:48;;;;;;;3.53;1.50;;;;;;;;;;5135737;27;20019;-72
2023/11/01 11:45:33;;;;;;;6.68;1.50;;;;;;;;;;5135340;27;20042;-72
2023/11/01 11:48:38;;;;;;;11.13;1.58;;;;;;;;;;5123114;27;20031;-72
2023/11/01 11:51:24;;;;;;;9.90;1.40;;;;;;;;;;5135510;27;20023;-71
2023/11/01 11:54:11;;;;;;;7.10;1.10;;;;;;;;;;5136104;27;20050;-72
2023/11/01 11:56:58;;;;;;;6.97;1.45;;;;;;;;;;5134139;27;20419;-72
2023/11/01 11:59:43;;;;;;;5.20;1.27;;;;;;;;;;5135229;27;20023;-73
2023/11/01 12:02:29;;;;;;;11.85;1.55;;;;;;;;;;5135207;27;20030;-72
2023/11/01 12:05:15;;;;;;;31.45;2.45;;;;;;;;;;5135100;27;20019;-71
2023/11/01 12:08:01;;;;;;;13.65;1.88;;;;;;;;;;5135416;27;20357;-71
2023/11/01 12:10:50;;;;;;;6.65;1.50;;;;;;;;;;5134878;27;20408;-72
2023/11/01 12:13:39;;;;;;;5.82;1.30;;;;;;;;;;5135177;27;20080;-72
2023/11/01 12:16:26;;;;;;;2.47;1.20;;;;;;;;;;5135156;27;20493;-71
2023/11/01 12:19:19;;;;;;;4.65;1.25;;;;;;;;;;5135212;27;20027;-71
2023/11/01 12:22:08;;;;;;;10.93;2.13;;;;;;;;;;5138423;27;20110;-71
2023/11/01 12:24:55;;;;;;;8.00;1.27;;;;;;;;;;5134526;27;20047;-71
2023/11/01 12:27:42;;;;;;;4.25;1.20;;;;;;;;;;5134574;27;20032;-72
2023/11/01 12:30:30;;;;;;;8.80;1.95;;;;;;;;;;5133522;27;20063;-72
2023/11/01 12:33:19;;;;;;;2.35;1.20;;;;;;;;;;5134810;28;20099;-71
2023/11/01 12:36:05;;;;;;;5.03;1.80;;;;;;;;;;5121303;28;20056;-71
2023/11/01 12:38:54;;;;;;;10.30;2.45;;;;;;;;;;5134472;28;20102;-71
2023/11/01 12:41:40;;;;;;;6.07;1.33;;;;;;;;;;5135801;28;20019;-72
2023/11/01 12:44:26;;;;;;;6.38;1.30;;;;;;;;;;5135210;28;20027;-71
2023/11/01 12:47:11;;;;;;;11.70;1.38;;;;;;;;;;5135969;28;20078;-71
2023/11/01 12:49:58;;;;;;;6.55;1.23;;;;;;;;;;5133032;28;20098;-71
2023/11/01 12:52:44;;;;;;;2.97;1.13;;;;;;;;;;5134491;28;20051;-72
2023/11/01 12:55:30;;;;;;;5.95;1.40;;;;;;;;;;5134029;28;20047;-71
2023/11/01 12:58:15;;;;;;;3.67;1.33;;;;;;;;;;5117891;28;20142;-72
2023/11/01 13:01:01;;;;;;;6.70;1.45;;;;;;;;;;5134039;28;20421;-72
2023/11/01 13:03:46;;;;;;;4.90;1.40;;;;;;;;;;5135159;28;20030;-72
2023/11/01 13:06:32;;;;;;;6.95;1.38;;;;;;;;;;5120445;28;20114;-72
2023/11/01 13:09:18;;;;;;;6.93;1.30;;;;;;;;;;5135333;28;20020;-72
2023/11/01 13:12:04;;;;;;;3.58;1.40;;;;;;;;;;5137514;28;20022;-73
2023/11/01 13:14:50;;;;;;;7.80;1.30;;;;;;;;;;5120449;28;20143;-73
2023/11/01 13:17:35;;;;;;;3.85;1.50;;;;;;;;;;5135799;27;20034;-73
2023/11/01 13:20:21;;;;;;;5.13;1.40;;;;;;;;;;5138101;27;20439;-73
2023/11/01 13:23:06;;;;;;;4.32;1.42;;;;;;;;;;5139692;27;20027;-73
2023/11/01 13:25:52;;;;;;;3.05;1.30;;;;;;;;;;5138852;27;20058;-73
2023/11/01 13:28:38;;;;;;;2.92;0.90;;;;;;;;;;5137955;27;20019;-73
2023/11/01 13:31:23;;;;;;;6.15;1.25;;;;;;;;;;5138100;27;20345;-73
2023/11/01 13:34:09;;;;;;;4.25;1.08;;;;;;;;;;5137771;27;20473;-73
2023/11/01 13:36:54;;;;;;;3.45;1.08;;;;;;;;;;5139893;27;20019;-74
2023/11/01 13:39:40;;;;;;;1.95;1.00;;;;;;;;;;5138893;27;20071;-73
2023/11/01 13:42:25;;;;;;;1.23;0.80;;;;;;;;;;5138134;27;20019;-74
2023/11/01 13:45:11;;;;;;;8.75;1.13;;;;;;;;;;5138513;27;20358;-73
2023/11/01 13:47:57;;;;;;;5.18;0.80;;;;;;;;;;5138048;27;20049;-73
2023/11/01 13:50:42;;;;;;;6.05;1.00;;;;;;;;;;5138760;27;20023;-72
2023/11/01 13:53:28;;;;;;;1.45;0.88;;;;;;;;;;5136276;27;20451;-73
2023/11/01 13:56:13;;;;;;;3.35;1.20;;;;;;;;;;5123404;27;20123;-74
2023/11/01 13:59:01;;;;;;;2.17;1.25;;;;;;;;;;5139040;27;20101;-72
2023/11/01 14:01:46;;;;;;;1.73;1.00;;;;;;;;;;5138231;27;20023;-73
2023/11/01 14:04:32;;;;;;;4.28;1.05;;;;;;;;;;5138423;27;20030;-73
2023/11/01 14:07:18;;;;;;;2.42;0.80;;;;;;;;;;5122460;27;20019;-74
2023/11/01 14:10:04;;;;;;;2.83;1.00;;;;;;;;;;5138254;27;20343;-73
2023/11/01 14:12:50;;;;;;;4.05;0.70;;;;;;;;;;5138628;27;20047;-73
2023/11/01 14:15:36;;;;;;;2.65;0.90;;;;;;;;;;5137207;27;20089;-72
2023/11/01 14:18:22;;;;;;;5.25;0.80;;;;;;;;;;5136836;27;20019;-73
2023/11/01 14:21:09;;;;;;;3.78;0.80;;;;;;;;;;5138026;27;20347;-74
2023/11/01 14:23:55;;;;;;;2.45;1.10;;;;;;;;;;5137316;27;20027;-73
2023/11/01 14:26:41;;;;;;;2.08;0.90;;;;;;;;;;5122565;27;20058;-73
2023/11/01 14:29:27;;;;;;;9.73;1.10;;;;;;;;;;5136160;27;20030;-72
2023/11/01 14:32:12;;;;;;;3.67;0.90;;;;;;;;;;5137601;27;20027;-73
2023/11/01 14:34:58;;;;;;;4.95;0.90;;;;;;;;;;5137919;27;20027;-73
2023/11/01 14:37:44;;;;;;;2.45;0.90;;;;;;;;;;5136790;27;20072;-73
2023/11/01 14:40:30;;;;;;;8.73;1.38;;;;;;;;;;5137705;27;20015;-73
2023/11/01 14:43:19;;;;;;;8.27;1.30;;;;;;;;;;5123336;27;20035;-73
2023/11/01 14:46:04;;;;;;;8.80;1.63;;;;;;;;;;5136847;27;20015;-73
2023/11/01 14:48:50;;;;;;;3.72;1.20;;;;;;;;;;5121453;27;20029;-73
2023/11/01 14:51:35;;;;;;;5.22;1.20;;;;;;;;;;5137045;27;20049;-72
2023/11/01 14:54:21;;;;;;;8.55;1.52;;;;;;;;;;5122225;27;20122;-73
2023/11/01 14:57:07;;;;;;;7.35;1.17;;;;;;;;;;5136703;27;20026;-73
2023/11/01 14:59:53;;;;;;;3.33;1.10;;;;;;;;;;5136676;27;20396;-72
2023/11/01 15:02:39;;;;;;;4.80;1.33;;;;;;;;;;5122495;27;20051;-72
2023/11/01 15:05:24;;;;;;;8.90;1.30;;;;;;;;;;5122018;27;20031;-73
2023/11/01 15:08:10;;;;;;;16.35;1.75;;;;;;;;;;5136039;27;20073;-74
2023/11/01 15:10:55;;;;;;;6.25;1.23;;;;;;;;;;5135941;27;20023;-72
2023/11/01 15:13:41;;;;;;;2.47;0.95;;;;;;;;;;5135793;27;20047;-74
2023/11/01 15:16:27;;;;;;;7.65;1.42;;;;;;;;;;5136676;27;20102;-73
2023/11/01 15:19:12;;;;;;;3.15;1.40;;;;;;;;;;5136781;27;20086;-73
2023/11/01 15:21:58;;;;;;;8.55;1.42;;;;;;;;;;5121667;27;20042;-73
2023/11/01 15:24:51;;;;;;;4.32;1.50;;;;;;;;;;5119247;27;20451;-73
2023/11/01 15:27:36;;;;;;;8.25;1.60;;;;;;;;;;5136536;27;20050;-73
2023/11/01 15:30:23;;;;;;;3.30;2.00;;;;;;;;;;5135265;27;20007;-73
2023/11/01 15:33:10;;;;;;;10.63;2.30;;;;;;;;;;5134217;27;20152;-73
2023/11/01 15:35:55;;;;;;;20.25;2.75;;;;;;;;;;5121242;27;20030;-74
2023/11/01 15:38:41;;;;;;;7.80;2.53;;;;;;;;;;5136205;27;20321;-73
2023/11/01 15:41:27;;;;;;;4.20;2.20;;;;;;;;;;5120751;27;20049;-73
2023/11/01 15:44:13;;;;;;;7.72;2.58;;;;;;;;;;5136497;27;20093;-72
2023/11/01 15:46:58;;;;;;;4.05;2.42;;;;;;;;;;5136461;27;20342;-71
2023/11/01 15:49:44;;;;;;;12.40;2.70;;;;;;;;;;5136764;27;20064;-72
2023/11/01 15:52:29;;;;;;;11.48;2.42;;;;;;;;;;5135964;27;20168;-72
2023/11/01 15:55:15;;;;;;;7.82;2.30;;;;;;;;;;5135038;27;20043;-73
2023/11/01 15:58:01;;;;;;;4.68;2.08;;;;;;;;;;5135557;27;20342;-73
2023/11/01 16:00:46;;;;;;;4.03;2.17;;;;;;;;;;5120810;27;20034;-73
2023/11/01 16:03:32;;;;;;;7.43;2.08;;;;;;;;;;5136108;27;20111;-73
2023/11/01 16:06:17;;;;;;;7.50;1.92;;;;;;;;;;5121108;27;20030;-73
2023/11/01 16:09:04;;;;;;;5.45;1.80;;;;;;;;;;5136222;27;20019;-73
2023/11/01 16:11:49;;;;;;;6.78;2.53;;;;;;;;;;5134879;27;20027;-72
2023/11/01 16:14:35;;;;;;;12.82;2.60;;;;;;;;;;5135964;27;20030;-74
2023/11/01 16:17:21;;;;;;;5.07;2.00;;;;;;;;;;5120727;27;20027;-74
2023/11/01 16:20:07;;;;;;;13.45;2.15;;;;;;;;;;5135305;27;20034;-73
2023/11/01 16:22:53;;;;;;;12.05;2.30;;;;;;;;;;5134835;27;20027;-73
2023/11/01 16:25:38;;;;;;;8.63;2.30;;;;;;;;;;5135449;27;20434;-74
2023/11/01 16:28:24;;;;;;;3.97;2.15;;;;;;;;;;5135510;27;20061;-73